Time;durP1;ratioP1;P1;durP2;ratioP2;P2;SDS_P1;SDS_P2;PMS_P1;PMS_P2;Temp;Humidity;BMP_temperature;BMP_pressure;BME280_temperature;BME280_humidity;BME280_pressure;Samples;Min_cycle;Max_cycle;Signal;HPM_P1;HPM_P2
2021/11/13 00:00:32;;;;;;;14.13;9.23;;;8.80;80.40;;;;;;5073275;28;20044;-36
2021/11/13 00:02:58;;;;;;;16.45;9.68;;;8.60;80.60;;;;;;5072972;28;20036;-36
2021/11/13 00:05:24;;;;;;;16.80;8.88;;;8.60;80.40;;;;;;5072778;28;20024;-38
2021/11/13 00:07:50;;;;;;;16.35;9.95;;;8.50;80.60;;;;;;5073120;28;20029;-36
2021/11/13 00:10:18;;;;;;;16.17;10.23;;;8.50;80.90;;;;;;5073043;28;20421;-36
2021/11/13 00:12:44;;;;;;;18.42;9.95;;;8.50;80.40;;;;;;5073065;28;20495;-36
2021/11/13 00:15:11;;;;;;;14.48;8.40;;;8.50;80.30;;;;;;5073046;28;20016;-36
2021/11/13 00:17:37;;;;;;;13.82;8.63;;;8.40;80.40;;;;;;5072632;28;20380;-37
2021/11/13 00:20:04;;;;;;;19.48;9.60;;;8.30;80.80;;;;;;5072930;28;20045;-37
2021/11/13 00:22:30;;;;;;;18.00;9.70;;;8.40;80.60;;;;;;5073073;28;20025;-37
2021/11/13 00:24:56;;;;;;;11.13;6.35;;;8.30;80.30;;;;;;5072813;28;20427;-37
2021/11/13 00:27:22;;;;;;;12.80;8.45;;;8.30;80.60;;;;;;5072691;28;20097;-37
2021/11/13 00:29:48;;;;;;;8.43;5.85;;;8.30;80.50;;;;;;5072604;28;20491;-36
2021/11/13 00:32:14;;;;;;;16.45;8.48;;;8.30;80.70;;;;;;5072763;28;20021;-37
2021/11/13 00:34:39;;;;;;;17.08;9.23;;;8.20;80.90;;;;;;5072776;28;20031;-37
2021/11/13 00:37:05;;;;;;;18.25;9.07;;;8.30;81.10;;;;;;5074211;28;20020;-37
2021/11/13 00:39:31;;;;;;;18.27;10.52;;;8.30;80.40;;;;;;5073084;28;20033;-37
2021/11/13 00:41:57;;;;;;;16.33;8.10;;;8.20;81.10;;;;;;5072641;28;20021;-37
2021/11/13 00:44:23;;;;;;;14.07;8.77;;;8.30;80.70;;;;;;5072598;28;20077;-37
2021/11/13 00:46:49;;;;;;;15.63;9.35;;;8.20;80.90;;;;;;5072721;28;20553;-37
2021/11/13 00:49:16;;;;;;;13.20;9.02;;;8.30;80.60;;;;;;5072936;28;20147;-36
2021/11/13 00:51:41;;;;;;;14.07;8.35;;;8.20;81.00;;;;;;5072853;28;20158;-37
2021/11/13 00:54:07;;;;;;;15.70;9.25;;;8.20;81.30;;;;;;5072374;28;20496;-37
2021/11/13 00:56:33;;;;;;;15.23;10.57;;;8.20;81.10;;;;;;5072472;28;20033;-36
2021/11/13 00:58:59;;;;;;;20.98;10.10;;;8.20;81.10;;;;;;5073706;28;20089;-36
2021/11/13 01:01:24;;;;;;;18.50;9.63;;;8.20;81.20;;;;;;5076390;28;20078;-36
2021/11/13 01:03:50;;;;;;;17.67;9.35;;;8.10;81.00;;;;;;5076320;28;20021;-36
2021/11/13 01:06:17;;;;;;;16.25;10.60;;;8.20;80.90;;;;;;5076139;28;20170;-36
2021/11/13 01:08:47;;;;;;;17.88;10.07;;;8.20;81.10;;;;;;5076064;28;20028;-36
2021/11/13 01:11:13;;;;;;;16.20;9.90;;;8.10;82.10;;;;;;5076048;28;20039;-36
2021/11/13 01:13:38;;;;;;;13.57;8.07;;;8.00;82.40;;;;;;5076064;28;20047;-36
2021/11/13 01:16:04;;;;;;;16.85;10.30;;;8.10;82.60;;;;;;5076413;28;20028;-36
2021/11/13 01:18:29;;;;;;;16.35;9.80;;;7.90;83.10;;;;;;5075975;28;20082;-36
2021/11/13 01:20:55;;;;;;;17.77;11.80;;;7.80;83.90;;;;;;5076053;28;20028;-36
2021/11/13 01:23:21;;;;;;;18.92;11.95;;;7.80;83.90;;;;;;5075918;28;20028;-36
2021/11/13 01:25:47;;;;;;;13.73;8.43;;;7.90;83.90;;;;;;5076009;28;20039;-36
2021/11/13 01:28:12;;;;;;;14.73;10.48;;;7.90;83.80;;;;;;5076050;28;20031;-36
2021/11/13 01:30:38;;;;;;;14.07;9.13;;;7.80;84.30;;;;;;5075888;28;20033;-38
2021/11/13 01:33:04;;;;;;;21.30;12.63;;;7.70;84.90;;;;;;5076079;28;20029;-36
2021/11/13 01:35:30;;;;;;;15.02;9.65;;;7.60;85.10;;;;;;5075462;28;20094;-36
2021/11/13 01:37:55;;;;;;;20.02;11.40;;;7.70;85.30;;;;;;5075439;28;20112;-36
2021/11/13 01:40:24;;;;;;;18.65;10.55;;;7.70;85.20;;;;;;5075946;28;20054;-36
2021/11/13 01:42:52;;;;;;;19.48;10.35;;;7.80;84.80;;;;;;5075734;28;20048;-37
2021/11/13 01:45:18;;;;;;;18.40;11.05;;;7.90;84.10;;;;;;5076041;28;20021;-38
2021/11/13 01:47:45;;;;;;;15.57;10.10;;;7.80;83.90;;;;;;5075485;28;20086;-37
2021/11/13 01:50:16;;;;;;;18.17;8.18;;;7.80;84.30;;;;;;5075308;28;20035;-38
2021/11/13 01:52:42;;;;;;;15.80;10.07;;;8.00;83.40;;;;;;5075379;28;20025;-37
2021/11/13 01:55:09;;;;;;;12.77;8.05;;;8.10;83.00;;;;;;5075612;28;20491;-37
2021/11/13 01:57:44;;;;;;;16.05;9.88;;;8.10;82.80;;;;;;5075567;28;20024;-37
2021/11/13 02:00:16;;;;;;;12.43;8.13;;;8.10;83.10;;;;;;5075096;28;20032;-37
2021/11/13 02:02:42;;;;;;;14.23;9.38;;;8.20;82.20;;;;;;5075230;28;20081;-37
2021/11/13 02:05:08;;;;;;;15.60;8.98;;;8.20;82.60;;;;;;5075266;28;20104;-37
2021/11/13 02:07:35;;;;;;;15.32;8.90;;;8.20;82.20;;;;;;5074662;28;20055;-37
2021/11/13 02:10:05;;;;;;;17.30;9.68;;;8.30;82.20;;;;;;5074206;28;20093;-37
2021/11/13 02:12:30;;;;;;;25.85;10.85;;;8.20;82.40;;;;;;5074577;28;20388;-37
2021/11/13 02:14:56;;;;;;;16.08;9.18;;;8.20;82.10;;;;;;5074776;28;20025;-37
2021/11/13 02:17:22;;;;;;;15.32;7.18;;;8.20;82.10;;;;;;5074655;28;20041;-37
2021/11/13 02:19:50;;;;;;;15.35;8.70;;;8.30;82.00;;;;;;5074759;28;20469;-37
2021/11/13 02:22:16;;;;;;;16.50;9.93;;;8.30;82.00;;;;;;5074750;28;20032;-37
2021/11/13 02:24:46;;;;;;;15.35;8.68;;;8.30;81.90;;;;;;5074640;28;20032;-38
2021/11/13 02:27:11;;;;;;;14.85;8.95;;;8.30;81.90;;;;;;5075356;28;20028;-38
2021/11/13 02:29:37;;;;;;;17.73;10.25;;;8.30;82.00;;;;;;5074570;28;20028;-38
2021/11/13 02:32:03;;;;;;;16.80;10.10;;;8.40;81.70;;;;;;5074580;28;20021;-37
2021/11/13 02:34:29;;;;;;;18.58;10.70;;;8.50;81.40;;;;;;5074682;28;20067;-37
2021/11/13 02:36:55;;;;;;;18.63;9.23;;;8.50;82.00;;;;;;5074798;28;20468;-38
2021/11/13 02:39:22;;;;;;;12.00;6.57;;;8.50;81.70;;;;;;5074502;28;20033;-36
2021/11/13 02:41:48;;;;;;;16.63;9.32;;;8.60;81.50;;;;;;5074533;28;20035;-36
2021/11/13 02:44:15;;;;;;;14.15;9.10;;;8.50;81.80;;;;;;5074686;28;20030;-36
2021/11/13 02:46:42;;;;;;;12.93;7.32;;;8.40;82.60;;;;;;5074346;28;20111;-37
2021/11/13 02:49:08;;;;;;;18.38;9.80;;;8.30;83.80;;;;;;5074739;28;20047;-36
2021/11/13 02:51:34;;;;;;;16.38;9.30;;;8.30;84.70;;;;;;5073071;28;20033;-37
2021/11/13 02:53:59;;;;;;;20.40;9.18;;;8.20;85.70;;;;;;5074469;28;20031;-37
2021/11/13 02:56:25;;;;;;;21.42;9.70;;;8.00;86.80;;;;;;5073183;28;20707;-37
2021/11/13 02:58:51;;;;;;;22.10;10.90;;;7.90;87.50;;;;;;5074432;28;20029;-39
2021/11/13 03:01:22;;;;;;;24.95;11.13;;;7.90;87.60;;;;;;5074191;28;20024;-37
2021/11/13 03:03:54;;;;;;;16.20;8.57;;;7.90;88.00;;;;;;5074402;28;20078;-37
2021/11/13 03:06:20;;;;;;;21.15;10.77;;;7.90;88.40;;;;;;5073841;28;20044;-36
2021/11/13 03:08:49;;;;;;;19.85;10.85;;;7.80;89.00;;;;;;5073981;28;20131;-37
2021/11/13 03:11:16;;;;;;;24.42;11.80;;;7.90;89.10;;;;;;5073884;28;20025;-37
2021/11/13 03:13:44;;;;;;;23.35;12.43;;;7.90;89.30;;;;;;5073841;28;20051;-36
2021/11/13 03:16:10;;;;;;;21.17;11.45;;;7.80;89.80;;;;;;5073748;28;20413;-37
2021/11/13 03:18:36;;;;;;;20.80;11.65;;;7.70;90.20;;;;;;5073584;28;20086;-36
2021/11/13 03:21:05;;;;;;;24.65;14.25;;;7.70;90.70;;;;;;5073693;28;20431;-37
2021/11/13 03:23:33;;;;;;;31.83;13.45;;;7.80;90.70;;;;;;5073736;28;20027;-36
2021/11/13 03:26:03;;;;;;;20.23;12.48;;;7.70;91.20;;;;;;5073791;28;20024;-36
2021/11/13 03:28:31;;;;;;;30.15;16.13;;;7.70;91.50;;;;;;5073791;28;20028;-37
2021/11/13 03:31:01;;;;;;;29.60;15.45;;;7.60;91.90;;;;;;5073538;28;20029;-37
2021/11/13 03:33:28;;;;;;;24.13;15.00;;;7.50;92.20;;;;;;5073487;28;20029;-37
2021/11/13 03:35:53;;;;;;;27.70;13.35;;;7.50;92.40;;;;;;5073973;28;20471;-37
2021/11/13 03:38:19;;;;;;;28.08;14.90;;;7.50;92.70;;;;;;5072016;28;20032;-37
2021/11/13 03:40:48;;;;;;;30.90;14.55;;;7.50;92.90;;;;;;5073621;28;20029;-37
2021/11/13 03:43:15;;;;;;;31.27;16.10;;;7.40;93.20;;;;;;5073544;28;20024;-37
2021/11/13 03:45:43;;;;;;;28.25;14.63;;;7.30;93.30;;;;;;5073288;28;20080;-38
2021/11/13 03:48:08;;;;;;;31.70;16.25;;;7.30;93.40;;;;;;5073289;28;20104;-37
2021/11/13 03:50:34;;;;;;;27.83;14.93;;;7.30;93.60;;;;;;5073175;28;20443;-37
2021/11/13 03:53:01;;;;;;;33.22;17.35;;;7.20;93.80;;;;;;5073117;28;20028;-37
2021/11/13 03:55:27;;;;;;;31.48;16.13;;;7.20;94.00;;;;;;5073031;28;20174;-37
2021/11/13 03:57:53;;;;;;;36.17;16.48;;;7.20;94.00;;;;;;5073056;28;20028;-37
2021/11/13 04:00:21;;;;;;;28.95;14.45;;;7.20;94.10;;;;;;5072971;28;20066;-38
2021/11/13 04:02:49;;;;;;;43.08;19.65;;;7.20;94.00;;;;;;5072917;28;20102;-37
2021/11/13 04:05:16;;;;;;;34.05;18.20;;;7.20;94.20;;;;;;5073294;28;20415;-37
2021/11/13 04:07:42;;;;;;;50.30;21.23;;;7.30;94.10;;;;;;5072772;28;20072;-37
2021/11/13 04:10:09;;;;;;;33.50;18.15;;;7.30;94.10;;;;;;5072854;28;20111;-36
2021/11/13 04:12:36;;;;;;;32.20;17.75;;;7.30;94.10;;;;;;5073111;28;20028;-37
2021/11/13 04:15:02;;;;;;;30.83;18.70;;;7.30;94.00;;;;;;5072836;28;20020;-37
2021/11/13 04:17:28;;;;;;;41.80;19.83;;;7.30;94.00;;;;;;5072869;28;20028;-37
2021/11/13 04:19:53;;;;;;;34.10;20.10;;;7.30;94.00;;;;;;5072840;28;20361;-37
2021/11/13 04:22:19;;;;;;;30.48;17.70;;;7.30;94.00;;;;;;5073023;28;20027;-37
2021/11/13 04:24:46;;;;;;;33.45;18.98;;;7.40;93.90;;;;;;5073679;28;20093;-37
2021/11/13 04:27:12;;;;;;;33.35;16.73;;;7.30;93.90;;;;;;5072940;28;20021;-37
2021/11/13 04:29:37;;;;;;;32.63;16.80;;;7.40;93.90;;;;;;5072678;28;20032;-37
2021/11/13 04:32:04;;;;;;;31.55;17.80;;;7.40;93.90;;;;;;5072648;28;20098;-36
2021/11/13 04:34:40;;;;;;;30.85;16.17;;;7.50;93.80;;;;;;5072258;28;20025;-36
2021/11/13 04:37:14;;;;;;;37.42;17.85;;;7.40;93.70;;;;;;5072958;28;20392;-36
2021/11/13 04:39:39;;;;;;;32.00;17.70;;;7.40;93.60;;;;;;5072811;28;20033;-37
2021/11/13 04:42:05;;;;;;;36.83;17.35;;;7.40;93.70;;;;;;5072502;28;20061;-36
2021/11/13 04:44:31;;;;;;;31.08;16.55;;;7.40;93.70;;;;;;5072540;28;20054;-37
2021/11/13 04:46:56;;;;;;;25.48;14.73;;;7.40;93.70;;;;;;5072792;28;20021;-37
2021/11/13 04:49:22;;;;;;;23.52;15.55;;;7.40;93.70;;;;;;5072768;28;20512;-37
2021/11/13 04:51:48;;;;;;;26.95;16.63;;;7.40;93.70;;;;;;5072498;28;20024;-37
2021/11/13 04:54:13;;;;;;;27.48;15.52;;;7.50;93.90;;;;;;5072494;28;20032;-36
2021/11/13 04:56:39;;;;;;;24.88;15.15;;;7.50;93.80;;;;;;5072472;28;20039;-36
2021/11/13 04:59:05;;;;;;;24.70;14.50;;;7.40;93.80;;;;;;5072785;28;20028;-37
2021/11/13 05:01:31;;;;;;;28.95;17.77;;;7.40;93.90;;;;;;5072623;28;20461;-37
2021/11/13 05:03:57;;;;;;;26.83;16.63;;;7.50;94.00;;;;;;5072572;28;20086;-36
2021/11/13 05:06:23;;;;;;;27.52;15.70;;;7.50;93.90;;;;;;5072479;28;20397;-37
2021/11/13 05:08:49;;;;;;;26.08;15.63;;;7.50;93.80;;;;;;5072577;28;20107;-36
2021/11/13 05:11:14;;;;;;;25.73;15.98;;;7.50;93.60;;;;;;5072948;28;20062;-37
2021/11/13 05:13:40;;;;;;;29.23;15.75;;;7.60;93.80;;;;;;5072629;28;20028;-37
2021/11/13 05:16:06;;;;;;;24.30;14.05;;;7.60;93.70;;;;;;5072531;28;20487;-36
2021/11/13 05:18:31;;;;;;;23.70;12.00;;;7.60;93.70;;;;;;5072078;28;20024;-36
2021/11/13 05:20:57;;;;;;;21.85;12.57;;;7.50;93.80;;;;;;5072491;28;20023;-37
2021/11/13 05:23:23;;;;;;;23.48;13.43;;;7.50;93.80;;;;;;5071903;28;20100;-37
2021/11/13 05:25:48;;;;;;;26.20;14.75;;;7.50;93.90;;;;;;5072317;28;20060;-37
2021/11/13 05:28:14;;;;;;;25.13;15.05;;;7.60;93.90;;;;;;5072092;28;20318;-37
2021/11/13 05:30:40;;;;;;;24.40;13.23;;;7.70;93.70;;;;;;5072450;28;20028;-36
2021/11/13 05:33:06;;;;;;;24.80;15.35;;;7.70;93.50;;;;;;5072060;28;20113;-37
2021/11/13 05:35:31;;;;;;;26.67;14.75;;;7.70;93.70;;;;;;5072348;28;20060;-38
2021/11/13 05:37:57;;;;;;;27.10;15.38;;;7.70;93.60;;;;;;5071947;28;20109;-37
2021/11/13 05:40:23;;;;;;;26.98;15.25;;;7.60;93.60;;;;;;5072331;28;20021;-36
2021/11/13 05:42:49;;;;;;;26.70;15.90;;;7.70;93.80;;;;;;5072242;28;20442;-37
2021/11/13 05:45:16;;;;;;;27.42;15.90;;;7.70;93.80;;;;;;5071982;28;20025;-37
2021/11/13 05:47:42;;;;;;;26.27;14.57;;;7.70;93.90;;;;;;5075471;28;20032;-37
2021/11/13 05:50:12;;;;;;;29.83;17.15;;;7.70;93.80;;;;;;5075936;28;20072;-37
2021/11/13 05:52:39;;;;;;;32.15;16.70;;;7.70;93.80;;;;;;5075450;28;20037;-37
2021/11/13 05:55:05;;;;;;;25.92;15.50;;;7.70;93.90;;;;;;5075628;28;20032;-37
2021/11/13 05:57:31;;;;;;;30.67;16.65;;;7.60;93.90;;;;;;5075163;28;20047;-37
2021/11/13 05:59:56;;;;;;;26.80;15.52;;;7.70;94.00;;;;;;5074260;28;20016;-37
2021/11/13 06:02:22;;;;;;;31.05;18.15;;;7.70;94.00;;;;;;5073941;28;20020;-37
2021/11/13 06:04:49;;;;;;;36.00;17.90;;;7.70;94.10;;;;;;5075432;28;20518;-37
2021/11/13 06:07:14;;;;;;;30.08;15.02;;;7.80;94.20;;;;;;5075060;28;20157;-37
2021/11/13 06:09:40;;;;;;;25.65;14.93;;;7.70;94.10;;;;;;5075119;28;20110;-38
2021/11/13 06:12:06;;;;;;;32.75;18.17;;;7.70;94.20;;;;;;5075037;28;20052;-37
2021/11/13 06:14:31;;;;;;;25.70;15.77;;;7.70;94.30;;;;;;5074648;28;20491;-37
2021/11/13 06:16:57;;;;;;;27.88;16.10;;;7.80;94.30;;;;;;5074774;28;20522;-37
2021/11/13 06:19:24;;;;;;;26.63;14.95;;;7.70;94.30;;;;;;5074851;28;20043;-37
2021/11/13 06:21:50;;;;;;;31.92;16.52;;;7.70;94.30;;;;;;5074877;28;20120;-37
2021/11/13 06:24:15;;;;;;;22.23;14.65;;;7.70;94.50;;;;;;5075170;28;20427;-37
2021/11/13 06:26:41;;;;;;;24.25;12.90;;;7.70;94.40;;;;;;5074934;28;20025;-37
2021/11/13 06:29:07;;;;;;;24.90;15.07;;;7.60;94.50;;;;;;5075069;28;20024;-37
2021/11/13 06:31:33;;;;;;;24.67;14.68;;;7.70;94.50;;;;;;5074667;28;20056;-37
2021/11/13 06:33:59;;;;;;;28.77;15.40;;;7.80;94.30;;;;;;5074622;28;20051;-38
2021/11/13 06:36:25;;;;;;;28.10;14.70;;;7.70;94.30;;;;;;5074592;28;20530;-37
2021/11/13 06:38:50;;;;;;;28.02;16.85;;;7.80;94.40;;;;;;5074448;28;20464;-37
2021/11/13 06:41:16;;;;;;;25.10;15.43;;;7.80;94.40;;;;;;5074884;28;20023;-37
2021/11/13 06:43:41;;;;;;;30.08;16.33;;;7.80;94.30;;;;;;5074579;28;20029;-37
2021/11/13 06:46:07;;;;;;;28.23;14.27;;;7.70;94.30;;;;;;5074672;28;20100;-47
2021/11/13 06:48:33;;;;;;;22.20;14.38;;;7.80;94.40;;;;;;5074451;28;20029;-37
2021/11/13 06:51:00;;;;;;;26.52;15.27;;;7.80;94.30;;;;;;5074605;28;20038;-37
2021/11/13 06:53:26;;;;;;;23.33;14.13;;;7.80;94.30;;;;;;5073179;28;20029;-37
2021/11/13 06:55:51;;;;;;;28.65;15.02;;;7.80;94.40;;;;;;5073712;28;20173;-37
2021/11/13 06:58:17;;;;;;;26.92;14.25;;;7.80;94.50;;;;;;5073420;28;20024;-37
2021/11/13 07:00:44;;;;;;;25.98;13.25;;;7.70;94.50;;;;;;5073540;28;20295;-37
2021/11/13 07:03:09;;;;;;;27.95;14.35;;;7.80;94.60;;;;;;5072741;28;20050;-37
2021/11/13 07:05:35;;;;;;;25.27;14.73;;;7.80;94.60;;;;;;5072977;28;20146;-37
2021/11/13 07:08:01;;;;;;;31.38;15.85;;;7.90;94.60;;;;;;5073125;28;20383;-37
2021/11/13 07:10:28;;;;;;;28.55;15.50;;;8.00;94.40;;;;;;5073630;28;20392;-37
2021/11/13 07:12:55;;;;;;;27.38;16.20;;;7.90;94.30;;;;;;5074094;28;20370;-37
2021/11/13 07:15:24;;;;;;;27.90;17.05;;;7.90;94.40;;;;;;5073685;28;20029;-37
2021/11/13 07:17:50;;;;;;;23.60;13.95;;;7.90;94.30;;;;;;5073740;28;20059;-37
2021/11/13 07:20:15;;;;;;;29.05;16.05;;;7.90;94.50;;;;;;5073715;28;20044;-37
2021/11/13 07:22:45;;;;;;;22.15;15.52;;;8.00;94.40;;;;;;5074010;28;20036;-37
2021/11/13 07:25:15;;;;;;;29.92;15.88;;;8.00;94.30;;;;;;5073381;28;20029;-37
2021/11/13 07:27:45;;;;;;;26.95;15.10;;;8.00;94.30;;;;;;5072259;28;20021;-37
2021/11/13 07:30:13;;;;;;;21.48;13.90;;;8.00;94.30;;;;;;5073831;28;20047;-37
2021/11/13 07:32:38;;;;;;;24.40;14.07;;;8.00;94.30;;;;;;5073775;28;20166;-38
2021/11/13 07:35:04;;;;;;;24.15;14.63;;;7.90;94.40;;;;;;5073645;28;20526;-37
2021/11/13 07:37:30;;;;;;;30.05;14.88;;;8.00;94.50;;;;;;5073270;28;20020;-37
2021/11/13 07:39:55;;;;;;;25.17;15.57;;;8.10;94.40;;;;;;5073539;28;20379;-38
2021/11/13 07:42:21;;;;;;;22.30;14.68;;;8.20;94.20;;;;;;5073713;28;20024;-37
2021/11/13 07:44:47;;;;;;;26.00;14.85;;;8.10;94.20;;;;;;5073880;28;20518;-37
2021/11/13 07:47:14;;;;;;;27.38;16.60;;;8.20;94.00;;;;;;5073051;28;20025;-37
2021/11/13 07:49:40;;;;;;;25.45;15.15;;;8.20;94.00;;;;;;5073161;28;20028;-37
2021/11/13 07:52:07;;;;;;;24.10;14.52;;;8.20;94.00;;;;;;5073121;28;20098;-37
2021/11/13 07:54:33;;;;;;;26.67;15.00;;;8.20;93.90;;;;;;5073216;28;20392;-37
2021/11/13 07:56:59;;;;;;;25.17;14.18;;;8.20;93.90;;;;;;5073112;28;20413;-37
2021/11/13 07:59:25;;;;;;;23.80;15.85;;;8.20;94.00;;;;;;5072658;28;20170;-37
2021/11/13 08:01:52;;;;;;;23.27;14.77;;;8.20;94.10;;;;;;5072841;28;20060;-37
2021/11/13 08:04:17;;;;;;;25.02;15.52;;;8.20;94.00;;;;;;5071226;28;20605;-38
2021/11/13 08:06:43;;;;;;;30.27;17.40;;;8.30;94.00;;;;;;5072559;28;20115;-37
2021/11/13 08:09:09;;;;;;;25.33;14.85;;;8.30;93.80;;;;;;5072113;28;20460;-37
2021/11/13 08:11:34;;;;;;;26.10;15.70;;;8.30;93.80;;;;;;5072663;28;20032;-37
2021/11/13 08:14:00;;;;;;;26.25;15.20;;;8.40;93.70;;;;;;5072651;28;20107;-37
2021/11/13 08:16:26;;;;;;;23.35;14.07;;;8.20;93.70;;;;;;5072926;28;20035;-39
2021/11/13 08:18:51;;;;;;;23.55;15.57;;;8.20;94.10;;;;;;5072557;28;20441;-36
2021/11/13 08:21:17;;;;;;;20.02;13.23;;;8.10;94.20;;;;;;5072016;28;20455;-37
2021/11/13 08:23:43;;;;;;;25.50;15.27;;;8.20;94.40;;;;;;5072742;28;20021;-37
2021/11/13 08:26:09;;;;;;;26.60;16.65;;;8.30;94.50;;;;;;5072876;28;20473;-37
2021/11/13 08:28:35;;;;;;;30.60;18.42;;;8.30;94.40;;;;;;5072887;28;20070;-39
2021/11/13 08:31:01;;;;;;;24.40;15.43;;;8.40;94.30;;;;;;5072585;28;20056;-37
2021/11/13 08:33:28;;;;;;;23.42;13.73;;;8.40;94.10;;;;;;5072379;28;20100;-37
2021/11/13 08:35:56;;;;;;;24.42;15.13;;;8.30;94.20;;;;;;5073230;28;20412;-38
2021/11/13 08:38:22;;;;;;;23.88;13.10;;;8.30;94.30;;;;;;5072333;28;20016;-38
2021/11/13 08:40:50;;;;;;;23.35;15.70;;;8.30;94.40;;;;;;5072627;28;20385;-37
2021/11/13 08:43:17;;;;;;;29.40;13.75;;;8.30;94.50;;;;;;5072678;28;20410;-37
2021/11/13 08:45:44;;;;;;;24.15;14.82;;;8.40;94.50;;;;;;5072249;28;20025;-38
2021/11/13 08:48:10;;;;;;;24.80;13.93;;;8.50;94.40;;;;;;5072450;28;20028;-38
2021/11/13 08:50:35;;;;;;;27.10;13.40;;;8.50;94.30;;;;;;5072743;28;20081;-37
2021/11/13 08:53:04;;;;;;;26.17;15.38;;;8.40;94.20;;;;;;5072678;28;20144;-37
2021/11/13 08:55:32;;;;;;;21.08;13.32;;;8.60;94.30;;;;;;5072511;28;20044;-37
2021/11/13 08:57:59;;;;;;;23.55;15.18;;;8.60;94.20;;;;;;5072448;28;20119;-38
2021/11/13 09:00:36;;;;;;;20.88;12.43;;;8.50;93.90;;;;;;5072281;28;20031;-37
2021/11/13 09:03:05;;;;;;;24.13;13.93;;;8.50;93.90;;;;;;5072674;28;20021;-38
2021/11/13 09:05:31;;;;;;;25.48;13.45;;;8.60;94.00;;;;;;5071782;28;20392;-38
2021/11/13 09:07:59;;;;;;;25.67;15.15;;;8.70;94.00;;;;;;5072262;28;20039;-38
2021/11/13 09:10:25;;;;;;;24.35;14.65;;;8.80;93.70;;;;;;5072499;28;20092;-37
2021/11/13 09:12:51;;;;;;;20.02;12.38;;;8.80;93.60;;;;;;5072559;28;20024;-38
2021/11/13 09:15:23;;;;;;;24.70;14.07;;;8.80;93.60;;;;;;5072607;28;20017;-37
2021/11/13 09:17:50;;;;;;;20.38;13.38;;;8.80;93.50;;;;;;5072376;28;20024;-37
2021/11/13 09:20:15;;;;;;;21.80;13.95;;;8.80;93.50;;;;;;5072425;28;20039;-37
2021/11/13 09:22:41;;;;;;;18.50;12.23;;;9.00;93.30;;;;;;5075860;28;20024;-37
2021/11/13 09:25:10;;;;;;;21.52;12.30;;;9.10;93.30;;;;;;5074989;28;20116;-37
2021/11/13 09:27:42;;;;;;;18.98;12.65;;;9.10;92.90;;;;;;5074952;28;20039;-37
2021/11/13 09:30:12;;;;;;;27.25;12.88;;;9.10;92.80;;;;;;5076439;28;20074;-37
2021/11/13 09:32:37;;;;;;;20.45;13.38;;;9.10;92.90;;;;;;5076027;28;20070;-37
2021/11/13 09:35:04;;;;;;;20.77;14.35;;;9.10;92.60;;;;;;5075805;28;20469;-37
2021/11/13 09:37:31;;;;;;;20.58;12.98;;;9.30;92.70;;;;;;5076159;28;20024;-37
2021/11/13 09:39:58;;;;;;;16.38;10.75;;;9.30;92.70;;;;;;5076617;28;20029;-37
2021/11/13 09:42:24;;;;;;;16.60;11.55;;;9.20;92.60;;;;;;5076072;28;20047;-37
2021/11/13 09:44:50;;;;;;;17.38;11.07;;;9.10;92.90;;;;;;5075750;28;20020;-37
2021/11/13 09:47:17;;;;;;;17.75;10.95;;;9.20;93.10;;;;;;5075339;28;20060;-37
2021/11/13 09:49:44;;;;;;;18.83;11.25;;;9.30;92.90;;;;;;5075224;28;20112;-37
2021/11/13 09:52:12;;;;;;;14.80;10.45;;;9.40;92.60;;;;;;5074972;28;20028;-37
2021/11/13 09:54:39;;;;;;;16.55;11.02;;;9.30;92.70;;;;;;5075132;28;20064;-37
2021/11/13 09:57:05;;;;;;;14.38;10.27;;;9.30;92.90;;;;;;5075241;28;20551;-37
2021/11/13 09:59:30;;;;;;;14.43;10.80;;;9.20;93.00;;;;;;5075540;28;20043;-41
2021/11/13 10:01:56;;;;;;;18.98;11.98;;;9.20;93.00;;;;;;5075509;28;20116;-38
2021/11/13 10:04:23;;;;;;;12.32;9.48;;;9.30;93.10;;;;;;5073889;28;20024;-37
2021/11/13 10:06:50;;;;;;;15.60;9.82;;;9.30;93.20;;;;;;5075235;28;20464;-37
2021/11/13 10:09:16;;;;;;;16.35;10.07;;;9.40;93.00;;;;;;5074990;28;20024;-37
2021/11/13 10:11:48;;;;;;;16.77;9.43;;;9.40;92.90;;;;;;5075081;28;20029;-37
2021/11/13 10:14:15;;;;;;;16.23;11.43;;;9.60;93.00;;;;;;5075477;28;20043;-39
2021/11/13 10:16:44;;;;;;;17.88;11.98;;;9.60;92.80;;;;;;5073302;28;20029;-37
2021/11/13 10:19:18;;;;;;;18.77;11.88;;;9.70;92.60;;;;;;5073137;28;20081;-38
2021/11/13 10:21:50;;;;;;;14.45;9.88;;;9.60;92.50;;;;;;5075190;28;20032;-38
2021/11/13 10:24:23;;;;;;;15.32;10.07;;;9.70;92.60;;;;;;5074798;28;20137;-37
2021/11/13 10:26:51;;;;;;;17.50;10.68;;;9.70;92.70;;;;;;5074325;28;20052;-38
2021/11/13 10:29:20;;;;;;;14.63;11.32;;;9.60;93.00;;;;;;5074526;28;20039;-38
2021/11/13 10:31:51;;;;;;;20.58;10.82;;;9.80;93.00;;;;;;5072143;28;20082;-39
2021/11/13 10:34:24;;;;;;;18.83;11.35;;;9.70;92.90;;;;;;5074412;28;20035;-38
2021/11/13 10:36:57;;;;;;;17.17;11.25;;;9.80;93.10;;;;;;5074485;28;20499;-36
2021/11/13 10:39:26;;;;;;;14.00;10.10;;;9.90;92.70;;;;;;5073782;28;20056;-37
2021/11/13 10:41:58;;;;;;;18.73;11.18;;;9.80;92.70;;;;;;5074157;28;20029;-36
2021/11/13 10:44:30;;;;;;;17.08;11.50;;;9.80;92.90;;;;;;5074583;28;20384;-37
2021/11/13 10:46:59;;;;;;;13.82;9.10;;;9.80;92.60;;;;;;5074217;28;20054;-46
2021/11/13 10:49:25;;;;;;;15.57;10.95;;;9.80;92.80;;;;;;5073697;28;20074;-37
2021/11/13 10:52:00;;;;;;;13.27;9.43;;;9.80;93.00;;;;;;5074066;28;20361;-37
2021/11/13 10:54:27;;;;;;;13.02;10.15;;;9.80;92.90;;;;;;5073991;28;20154;-37
2021/11/13 10:56:59;;;;;;;16.30;11.18;;;9.80;93.00;;;;;;5072502;28;20077;-37
2021/11/13 10:59:35;;;;;;;23.23;14.82;;;9.80;93.00;;;;;;5072634;28;20058;-39
2021/11/13 11:02:05;;;;;;;14.30;9.10;;;9.80;93.10;;;;;;5072199;28;20322;-47
2021/11/13 11:04:33;;;;;;;14.00;10.05;;;9.80;93.00;;;;;;5073649;28;20035;-37
2021/11/13 11:07:11;;;;;;;16.67;9.70;;;9.90;92.70;;;;;;5073513;28;20052;-38
2021/11/13 11:09:38;;;;;;;10.65;8.18;;;9.80;92.60;;;;;;5073729;28;20541;-37
2021/11/13 11:12:09;;;;;;;12.70;9.93;;;9.80;92.40;;;;;;5073382;28;20447;-38
2021/11/13 11:14:39;;;;;;;11.85;8.40;;;9.80;92.20;;;;;;5073667;28;20029;-38
2021/11/13 11:17:07;;;;;;;12.27;9.17;;;9.80;92.40;;;;;;5073295;28;20040;-38
2021/11/13 11:19:36;;;;;;;11.27;8.00;;;9.70;92.50;;;;;;5073495;28;20400;-37
2021/11/13 11:22:08;;;;;;;13.52;8.27;;;9.70;92.50;;;;;;5073299;28;20098;-38
2021/11/13 11:24:47;;;;;;;10.50;7.45;;;9.70;92.50;;;;;;5073137;28;20032;-37
2021/11/13 11:27:20;;;;;;;13.90;8.65;;;9.60;92.50;;;;;;5073402;28;20036;-37
2021/11/13 11:29:46;;;;;;;14.68;10.10;;;9.60;92.70;;;;;;5072848;28;20127;-37
2021/11/13 11:32:15;;;;;;;11.93;9.10;;;9.80;92.80;;;;;;5072414;28;20024;-37
2021/11/13 11:34:43;;;;;;;14.48;9.02;;;9.80;92.30;;;;;;5071344;28;20027;-37
2021/11/13 11:37:19;;;;;;;14.35;8.60;;;9.80;92.10;;;;;;5074668;28;20094;-37
2021/11/13 11:39:49;;;;;;;11.25;8.30;;;9.80;92.10;;;;;;5072874;28;20028;-36
2021/11/13 11:42:16;;;;;;;13.95;9.85;;;9.80;92.20;;;;;;5072996;28;20520;-38
2021/11/13 11:44:45;;;;;;;14.65;8.90;;;9.90;91.90;;;;;;5073730;28;20099;-36
2021/11/13 11:47:19;;;;;;;12.98;8.98;;;9.80;91.70;;;;;;5072770;28;20495;-37
2021/11/13 11:49:52;;;;;;;14.73;10.85;;;9.80;92.10;;;;;;5072564;28;20033;-37
2021/11/13 11:52:21;;;;;;;14.73;10.15;;;9.90;91.90;;;;;;5073304;28;20028;-37
2021/11/13 11:54:49;;;;;;;12.05;9.23;;;9.80;91.70;;;;;;5073446;28;20078;-37
2021/11/13 11:57:17;;;;;;;16.50;10.05;;;9.80;92.10;;;;;;5074990;28;20025;-37
2021/11/13 11:59:43;;;;;;;15.00;11.20;;;9.80;92.20;;;;;;5074888;28;20473;-38
2021/11/13 12:02:16;;;;;;;13.30;10.32;;;9.80;92.40;;;;;;5072965;28;20032;-37
2021/11/13 12:04:44;;;;;;;18.58;12.63;;;9.80;92.30;;;;;;5073708;28;20032;-37
2021/11/13 12:07:13;;;;;;;15.82;10.88;;;9.80;92.50;;;;;;5074133;28;20045;-37
2021/11/13 12:09:58;;;;;;;15.00;10.82;;;9.80;92.70;;;;;;5073838;28;20377;-38
2021/11/13 12:12:24;;;;;;;16.90;12.32;;;9.80;92.30;;;;;;5073510;28;20024;-38
2021/11/13 12:14:50;;;;;;;17.20;11.82;;;9.90;92.50;;;;;;5074171;28;20020;-43
2021/11/13 12:17:30;;;;;;;15.95;11.55;;;10.00;92.20;;;;;;5073025;28;20033;-37
2021/11/13 12:20:04;;;;;;;15.18;11.00;;;10.00;92.10;;;;;;5072385;28;20028;-38
2021/11/13 12:22:49;;;;;;;18.58;13.95;;;9.90;92.20;;;;;;5073047;28;20021;-38
2021/11/13 12:25:35;;;;;;;18.10;10.95;;;9.80;92.50;;;;;;5073275;28;20473;-38
2021/11/13 12:28:19;;;;;;;18.90;13.02;;;9.80;92.70;;;;;;5072879;28;20070;-38
2021/11/13 12:31:08;;;;;;;18.50;12.02;;;9.80;92.90;;;;;;5073426;28;20038;-38
2021/11/13 12:33:34;;;;;;;14.52;11.52;;;9.80;92.80;;;;;;5072563;28;20384;-38
2021/11/13 12:36:13;;;;;;;18.55;11.90;;;9.80;92.90;;;;;;5072446;28;20021;-37
2021/11/13 12:38:43;;;;;;;16.88;13.20;;;9.90;93.10;;;;;;5072400;28;20103;-38